Terminal Aerodrome Forecast
Issued by NWS

Home | Current Version | Previous Version | Text Only | Print | Product List | Glossary On
Versions: 1 2 3 4 5 6 7 8 9 10 11 12 13 14
000
FTUS45 KABQ 051139
TAFAEG
TAF
KAEG 051139Z 0512/0612 33006KT P6SM SCT070 OVC100
     FM051700 18006KT P6SM VCSH SCT050 SCT150
     FM052100 20012KT P6SM VCTS SCT070 BKN090CB
     FM060200 25006KT P6SM FEW070 BKN100=

USA.gov is the U.S. government's official web portal to all federal, state and local government web resources and services.